createdAt,value
2023-01-25T00:00:16.149Z,16.90
2023-01-25T00:02:45.123Z,15.95
2023-01-25T00:05:17.108Z,16.40
2023-01-25T00:07:46.768Z,17.20
2023-01-25T00:10:15.491Z,16.17
2023-01-25T00:12:46.371Z,16.60
2023-01-25T00:15:17.321Z,16.35
2023-01-25T00:17:46.289Z,16.52
2023-01-25T00:20:16.414Z,16.75
2023-01-25T00:22:48.178Z,16.33
2023-01-25T00:25:17.041Z,15.65
2023-01-25T00:27:46.281Z,15.95
2023-01-25T00:30:18.837Z,16.00
2023-01-25T00:33:03.149Z,16.58
2023-01-25T00:35:33.715Z,16.40
2023-01-25T00:38:29.467Z,17.13
2023-01-25T00:40:59.762Z,17.20
2023-01-25T00:43:29.666Z,17.90
2023-01-25T00:46:04.355Z,17.97
2023-01-25T00:48:33.258Z,17.63
2023-01-25T00:51:02.736Z,18.65
2023-01-25T00:53:32.562Z,18.50
2023-01-25T00:56:03.582Z,18.85
2023-01-25T00:58:32.384Z,18.50
2023-01-25T01:01:04.221Z,19.00
2023-01-25T01:03:32.888Z,18.23
2023-01-25T01:06:06.240Z,17.95
2023-01-25T01:08:40.930Z,18.15
2023-01-25T01:11:13.060Z,18.55
2023-01-25T01:13:42.291Z,19.50
2023-01-25T01:16:14.335Z,18.23
2023-01-25T01:18:46.180Z,17.98
2023-01-25T01:21:16.421Z,17.88
2023-01-25T01:23:47.735Z,18.58
2023-01-25T01:26:19.587Z,18.70
2023-01-25T01:28:50.047Z,19.98
2023-01-25T01:31:23.516Z,19.30
2023-01-25T01:34:04.501Z,19.23
2023-01-25T01:36:33.593Z,20.37
2023-01-25T01:39:05.934Z,19.33
2023-01-25T01:41:37.233Z,19.60
2023-01-25T01:44:07.824Z,18.98
2023-01-25T01:46:40.288Z,19.83
2023-01-25T01:49:21.785Z,19.58
2023-01-25T01:51:58.904Z,20.58
2023-01-25T01:54:39.023Z,19.92
2023-01-25T01:57:16.695Z,19.98
2023-01-25T01:59:52.530Z,19.48
2023-01-25T02:02:22.564Z,21.30
2023-01-25T02:05:00.344Z,19.92
2023-01-25T02:07:35.371Z,19.33
2023-01-25T02:10:10.729Z,20.77
2023-01-25T02:12:40.702Z,20.02
2023-01-25T02:15:11.716Z,19.35
2023-01-25T02:17:44.163Z,20.25
2023-01-25T02:20:30.520Z,19.65
2023-01-25T02:23:10.140Z,19.70
2023-01-25T02:25:43.310Z,19.17
2023-01-25T02:28:20.793Z,18.63
2023-01-25T02:30:55.442Z,19.83
2023-01-25T02:33:27.979Z,18.00
2023-01-25T02:36:15.470Z,18.15
2023-01-25T02:38:54.525Z,19.07
2023-01-25T02:41:35.104Z,19.23
2023-01-25T02:44:07.804Z,18.23
2023-01-25T02:46:40.058Z,18.92
2023-01-25T02:49:10.892Z,19.27
2023-01-25T02:51:43.171Z,19.58
2023-01-25T02:54:17.447Z,18.42
2023-01-25T02:56:49.103Z,19.33
2023-01-25T02:59:20.261Z,18.23
2023-01-25T03:01:52.825Z,18.50
2023-01-25T03:04:22.388Z,18.33
2023-01-25T03:06:51.788Z,18.55
2023-01-25T03:09:21.224Z,18.53
2023-01-25T03:11:53.336Z,18.58
2023-01-25T03:14:26.756Z,19.48
2023-01-25T03:16:55.014Z,18.33
2023-01-25T03:19:26.310Z,19.08
2023-01-25T03:21:55.281Z,18.50
2023-01-25T03:24:25.965Z,17.73
2023-01-25T03:27:17.684Z,18.27
2023-01-25T03:29:50.139Z,18.88
2023-01-25T03:32:23.952Z,18.52
2023-01-25T03:34:52.785Z,19.42
2023-01-25T03:37:21.948Z,18.60
2023-01-25T03:39:54.016Z,18.88
2023-01-25T03:42:25.340Z,18.77
2023-01-25T03:44:59.926Z,19.35
2023-01-25T03:47:30.743Z,18.33
2023-01-25T03:49:59.774Z,18.50
2023-01-25T03:52:34.299Z,19.52
2023-01-25T03:55:04.123Z,18.83
2023-01-25T03:57:37.419Z,19.90
2023-01-25T04:00:10.719Z,18.65
2023-01-25T04:02:50.702Z,19.23
2023-01-25T04:05:21.096Z,18.97
2023-01-25T04:07:49.592Z,18.88
2023-01-25T04:10:23.915Z,20.30
2023-01-25T04:12:53.632Z,20.67
2023-01-25T04:15:22.989Z,19.65
2023-01-25T04:17:51.852Z,20.37
2023-01-25T04:20:25.196Z,20.05
2023-01-25T04:22:55.198Z,20.00
2023-01-25T04:25:28.964Z,19.13
2023-01-25T04:28:01.162Z,19.95
2023-01-25T04:30:30.978Z,19.10
2023-01-25T04:33:08.057Z,19.40
2023-01-25T04:35:37.856Z,19.08
2023-01-25T04:38:11.296Z,19.95
2023-01-25T04:40:44.744Z,18.90
2023-01-25T04:43:18.330Z,19.20
2023-01-25T04:45:50.363Z,20.33
2023-01-25T04:48:25.236Z,18.52
2023-01-25T04:50:58.700Z,18.85
2023-01-25T04:53:28.316Z,18.52
2023-01-25T04:56:01.596Z,19.35
2023-01-25T04:58:36.204Z,18.55
2023-01-25T05:01:06.045Z,18.73
2023-01-25T05:03:38.167Z,18.38
2023-01-25T05:06:12.230Z,18.53
2023-01-25T05:08:43.331Z,19.65
2023-01-25T05:11:12.238Z,18.85
2023-01-25T05:13:56.024Z,20.55
2023-01-25T05:16:33.971Z,19.15
2023-01-25T05:19:03.247Z,17.90
2023-01-25T05:22:01.029Z,17.02
2023-01-25T05:24:36.606Z,16.83
2023-01-25T05:27:18.540Z,16.77
2023-01-25T05:30:01.276Z,17.20
2023-01-25T05:32:51.768Z,16.83
2023-01-25T05:35:20.732Z,17.63
2023-01-25T05:37:52.050Z,18.13
2023-01-25T05:40:26.540Z,18.27
2023-01-25T05:42:58.730Z,18.67
2023-01-25T05:45:31.345Z,18.02
2023-01-25T05:48:00.911Z,18.10
2023-01-25T05:50:30.057Z,17.38
2023-01-25T05:53:05.808Z,17.57
2023-01-25T05:55:37.878Z,17.83
2023-01-25T05:58:10.826Z,17.05
2023-01-25T06:00:43.072Z,17.63
2023-01-25T06:03:17.479Z,19.03
2023-01-25T06:05:47.448Z,18.73
2023-01-25T06:08:16.530Z,16.83
2023-01-25T06:10:50.907Z,16.42
2023-01-25T06:13:20.562Z,16.77
2023-01-25T06:15:55.734Z,16.48
2023-01-25T06:18:41.500Z,16.92
2023-01-25T06:21:32.946Z,15.90
2023-01-25T06:24:01.407Z,16.95
2023-01-25T06:26:30.992Z,17.27
2023-01-25T06:29:01.061Z,16.30
2023-01-25T06:31:33.227Z,16.38
2023-01-25T06:34:05.004Z,16.20
2023-01-25T06:36:34.537Z,14.93
2023-01-25T06:39:03.316Z,15.57
2023-01-25T06:41:33.005Z,15.27
2023-01-25T06:44:03.045Z,15.02
2023-01-25T06:46:34.575Z,14.40
2023-01-25T06:49:03.297Z,14.05
2023-01-25T06:51:32.338Z,14.77
2023-01-25T06:54:05.353Z,15.38
2023-01-25T06:56:42.034Z,15.60
2023-01-25T06:59:10.908Z,14.82
2023-01-25T07:01:43.730Z,15.85
2023-01-25T07:04:14.508Z,16.40
2023-01-25T07:06:47.307Z,14.85
2023-01-25T07:09:18.424Z,14.27
2023-01-25T07:11:47.633Z,13.73
2023-01-25T07:14:16.810Z,14.10
2023-01-25T07:16:47.938Z,14.50
2023-01-25T07:19:17.893Z,13.55
2023-01-25T07:21:49.213Z,15.20
2023-01-25T07:24:21.332Z,13.93
2023-01-25T07:26:54.333Z,14.52
2023-01-25T07:29:25.467Z,14.85
2023-01-25T07:31:56.565Z,14.63
2023-01-25T07:34:28.988Z,15.03
2023-01-25T07:36:57.558Z,15.82
2023-01-25T07:39:30.627Z,15.80
2023-01-25T07:41:59.375Z,15.65
2023-01-25T07:44:35.771Z,15.52
2023-01-25T07:47:16.622Z,15.73
2023-01-25T07:49:45.292Z,15.57
2023-01-25T07:52:15.856Z,14.37
2023-01-25T07:54:48.381Z,13.90
2023-01-25T07:57:18.055Z,15.02
2023-01-25T07:59:47.413Z,14.25
2023-01-25T08:02:19.287Z,15.32
2023-01-25T08:04:48.211Z,14.32
2023-01-25T08:07:17.621Z,14.07
2023-01-25T08:09:46.344Z,13.95
2023-01-25T08:12:17.905Z,13.90
2023-01-25T08:14:46.365Z,13.80
2023-01-25T08:17:14.883Z,14.70
2023-01-25T08:19:46.091Z,13.32
2023-01-25T08:22:15.665Z,13.55
2023-01-25T08:24:43.945Z,15.25
2023-01-25T08:27:13.500Z,14.50
2023-01-25T08:29:42.700Z,14.90
2023-01-25T08:32:12.084Z,14.73
2023-01-25T08:34:41.417Z,14.48
2023-01-25T08:37:11.473Z,13.40
2023-01-25T08:39:40.214Z,14.25
2023-01-25T08:42:09.708Z,14.02
2023-01-25T08:44:38.615Z,13.05
2023-01-25T08:47:07.062Z,12.68
2023-01-25T08:49:36.422Z,13.25
2023-01-25T08:52:05.602Z,13.43
2023-01-25T08:54:35.575Z,13.10
2023-01-25T08:57:06.313Z,13.13
2023-01-25T08:59:38.207Z,12.85
2023-01-25T09:02:08.105Z,13.48
2023-01-25T09:04:37.420Z,13.43
2023-01-25T09:07:08.481Z,13.30
2023-01-25T09:09:39.515Z,13.88
2023-01-25T09:12:10.783Z,12.80
2023-01-25T09:14:45.151Z,13.43
2023-01-25T09:17:14.135Z,13.20
2023-01-25T09:19:47.860Z,12.80
2023-01-25T09:22:16.229Z,13.10
2023-01-25T09:24:56.584Z,12.52
2023-01-25T09:27:26.048Z,13.20
2023-01-25T09:30:02.125Z,12.48
2023-01-25T09:32:33.679Z,12.07
2023-01-25T09:35:04.784Z,11.77
2023-01-25T09:37:33.456Z,12.18
2023-01-25T09:40:05.126Z,11.82
2023-01-25T09:43:03.393Z,11.82
2023-01-25T09:45:37.328Z,11.68
2023-01-25T09:48:25.630Z,11.25
2023-01-25T09:51:22.365Z,11.75
2023-01-25T09:53:58.655Z,11.13
2023-01-25T09:56:38.186Z,10.82
2023-01-25T09:59:17.463Z,11.60
2023-01-25T10:01:57.980Z,11.43
2023-01-25T10:04:36.171Z,12.00
2023-01-25T10:07:20.949Z,10.98
2023-01-25T10:09:58.023Z,9.90
2023-01-25T10:12:36.124Z,10.32
2023-01-25T10:15:20.192Z,9.67
2023-01-25T10:18:03.733Z,10.30
2023-01-25T10:20:42.901Z,10.90
2023-01-25T10:23:51.305Z,11.20
2023-01-25T10:26:30.202Z,10.80
2023-01-25T10:29:13.089Z,10.60
2023-01-25T10:31:53.647Z,10.77
2023-01-25T10:34:26.035Z,10.60
2023-01-25T10:36:57.756Z,10.55
2023-01-25T10:39:28.754Z,9.93
2023-01-25T10:42:01.092Z,10.35
2023-01-25T10:44:33.479Z,9.45
2023-01-25T10:47:14.195Z,9.93
2023-01-25T10:49:47.943Z,11.38
2023-01-25T10:52:25.351Z,10.75
2023-01-25T10:55:16.764Z,9.40
2023-01-25T10:57:49.997Z,9.77
2023-01-25T11:00:30.685Z,9.43
2023-01-25T11:03:00.767Z,9.30
2023-01-25T11:05:35.781Z,9.83
2023-01-25T11:08:26.278Z,10.13
2023-01-25T11:10:57.570Z,9.93
2023-01-25T11:13:31.686Z,11.13
2023-01-25T11:16:30.829Z,11.75
2023-01-25T11:19:03.751Z,11.05
2023-01-25T11:21:37.320Z,10.68
2023-01-25T11:24:21.225Z,10.43
2023-01-25T11:26:50.772Z,11.05
2023-01-25T11:29:31.336Z,9.85
2023-01-25T11:32:05.603Z,11.95
2023-01-25T11:34:39.384Z,9.88
2023-01-25T11:37:41.817Z,10.18
2023-01-25T11:40:23.752Z,9.90
2023-01-25T11:43:15.069Z,9.82
2023-01-25T11:46:22.390Z,10.68
2023-01-25T11:49:26.381Z,10.85
2023-01-25T11:52:10.526Z,10.57
2023-01-25T11:55:00.952Z,10.15
2023-01-25T11:58:00.043Z,11.50
2023-01-25T12:00:49.986Z,10.80
2023-01-25T12:04:10.333Z,10.00
2023-01-25T12:07:03.489Z,9.63
2023-01-25T12:10:02.161Z,11.10
2023-01-25T12:12:47.024Z,11.07
2023-01-25T12:15:43.700Z,9.27
2023-01-25T12:18:56.445Z,9.70
2023-01-25T12:21:53.151Z,10.10
2023-01-25T12:24:49.356Z,10.40
2023-01-25T12:27:33.423Z,9.43
2023-01-25T12:30:19.205Z,9.68
2023-01-25T12:33:09.029Z,9.07
2023-01-25T12:35:51.333Z,9.25
2023-01-25T12:38:35.355Z,8.85
2023-01-25T12:41:21.589Z,9.75
2023-01-25T12:44:05.409Z,9.60
2023-01-25T12:46:43.718Z,9.70
2023-01-25T12:49:25.187Z,9.52
2023-01-25T12:52:00.867Z,9.50
2023-01-25T12:54:39.560Z,9.00
2023-01-25T12:57:30.455Z,9.40
2023-01-25T13:00:11.444Z,8.98
2023-01-25T13:03:16.637Z,9.48
2023-01-25T13:05:55.187Z,9.00
2023-01-25T13:08:41.811Z,8.90
2023-01-25T13:11:23.464Z,9.40
2023-01-25T13:13:59.967Z,9.15
2023-01-25T13:16:46.981Z,8.90
2023-01-25T13:19:25.117Z,9.10
2023-01-25T13:21:58.634Z,9.73
2023-01-25T13:24:30.980Z,9.10
2023-01-25T13:27:07.974Z,10.20
2023-01-25T13:30:07.382Z,11.10
2023-01-25T13:33:02.325Z,10.45
2023-01-25T13:35:47.283Z,9.67
2023-01-25T13:38:36.397Z,9.10
2023-01-25T13:41:12.491Z,9.63
2023-01-25T13:44:15.598Z,8.77
2023-01-25T13:46:45.486Z,9.55
2023-01-25T13:49:30.484Z,9.48
2023-01-25T13:52:03.077Z,10.60
2023-01-25T13:54:33.983Z,9.27
2023-01-25T13:57:09.531Z,9.43
2023-01-25T13:59:54.255Z,10.13
2023-01-25T14:02:31.267Z,9.90
2023-01-25T14:05:04.503Z,8.93
2023-01-25T14:07:39.962Z,8.88
2023-01-25T14:10:24.483Z,11.13
2023-01-25T14:13:02.128Z,9.27
2023-01-25T14:15:34.383Z,10.00
2023-01-25T14:18:19.454Z,8.80
2023-01-25T14:20:55.020Z,9.13
2023-01-25T14:23:34.544Z,9.18
2023-01-25T14:26:18.592Z,9.10
2023-01-25T14:29:01.066Z,13.02
2023-01-25T14:31:42.166Z,10.45
2023-01-25T14:34:21.959Z,9.77
2023-01-25T14:37:08.686Z,9.38
2023-01-25T14:39:40.432Z,9.10
2023-01-25T14:42:11.098Z,8.98
2023-01-25T14:44:41.623Z,8.90
2023-01-25T14:47:33.644Z,9.48
2023-01-25T14:50:38.264Z,9.38
2023-01-25T14:53:21.114Z,10.05
2023-01-25T14:55:53.546Z,9.73
2023-01-25T14:58:29.529Z,9.75
2023-01-25T15:01:02.516Z,9.40
2023-01-25T15:03:33.768Z,9.20
2023-01-25T15:06:06.352Z,9.07
2023-01-25T15:08:40.881Z,9.45
2023-01-25T15:11:39.143Z,9.77
2023-01-25T15:14:22.160Z,9.45
2023-01-25T15:16:51.319Z,9.93
2023-01-25T15:19:29.714Z,9.85
2023-01-25T15:22:01.633Z,9.60
2023-01-25T15:24:30.349Z,10.23
2023-01-25T15:26:59.039Z,9.60
2023-01-25T15:29:28.101Z,10.40
2023-01-25T15:31:57.876Z,11.05
2023-01-25T15:34:33.573Z,9.55
2023-01-25T15:37:02.178Z,9.85
2023-01-25T15:39:32.997Z,9.13
2023-01-25T15:42:01.490Z,9.68
2023-01-25T15:44:30.530Z,9.20
2023-01-25T15:46:59.842Z,9.43
2023-01-25T15:49:31.635Z,10.02
2023-01-25T15:52:00.618Z,9.80
2023-01-25T15:54:29.216Z,9.27
2023-01-25T15:57:01.263Z,8.95
2023-01-25T15:59:32.278Z,10.15
2023-01-25T16:02:00.585Z,9.88
2023-01-25T16:04:31.352Z,10.13
2023-01-25T16:07:02.623Z,9.68
2023-01-25T16:09:34.093Z,9.50
2023-01-25T16:12:03.598Z,10.88
2023-01-25T16:14:34.717Z,10.68
2023-01-25T16:17:06.223Z,10.80
2023-01-25T16:19:38.051Z,10.73
2023-01-25T16:22:06.341Z,10.70
2023-01-25T16:24:39.402Z,10.75
2023-01-25T16:27:20.205Z,9.52
2023-01-25T16:29:49.776Z,10.27
2023-01-25T16:32:19.253Z,9.57
2023-01-25T16:34:50.569Z,10.40
2023-01-25T16:37:19.763Z,10.20
2023-01-25T16:39:48.805Z,11.23
2023-01-25T16:42:17.253Z,10.02
2023-01-25T16:44:46.111Z,10.43
2023-01-25T16:47:18.268Z,10.00
2023-01-25T16:49:48.489Z,9.80
2023-01-25T16:52:16.771Z,10.77
2023-01-25T16:54:45.317Z,10.30
2023-01-25T16:57:20.595Z,11.07
2023-01-25T16:59:50.545Z,11.70
2023-01-25T17:02:21.574Z,10.98
2023-01-25T17:04:51.129Z,11.40
2023-01-25T17:07:20.415Z,11.80
2023-01-25T17:09:49.289Z,12.13
2023-01-25T17:12:18.759Z,13.37
2023-01-25T17:14:47.948Z,12.53
2023-01-25T17:17:16.815Z,11.77
2023-01-25T17:19:52.334Z,12.25
2023-01-25T17:22:23.067Z,10.95
2023-01-25T17:24:51.852Z,11.10
2023-01-25T17:27:21.888Z,11.45
2023-01-25T17:29:51.048Z,11.57
2023-01-25T17:32:19.551Z,11.23
2023-01-25T17:34:49.897Z,11.82
2023-01-25T17:37:20.266Z,11.32
2023-01-25T17:39:50.356Z,12.00
2023-01-25T17:42:18.619Z,11.88
2023-01-25T17:44:47.740Z,11.88
2023-01-25T17:47:16.934Z,12.27
2023-01-25T17:49:45.466Z,12.18
2023-01-25T17:55:07.107Z,11.05
2023-01-25T17:57:37.238Z,11.23
2023-01-25T18:00:14.299Z,12.37
2023-01-25T18:02:46.659Z,14.02
2023-01-25T18:05:15.681Z,12.97
2023-01-25T18:07:45.677Z,13.52
2023-01-25T18:10:15.855Z,13.48
2023-01-25T18:13:03.598Z,12.68
2023-01-25T18:15:33.297Z,13.00
2023-01-25T18:18:01.756Z,12.68
2023-01-25T18:20:31.562Z,11.75
2023-01-25T18:23:02.799Z,11.50
2023-01-25T18:25:37.348Z,11.00
2023-01-25T18:28:05.919Z,11.27
2023-01-25T18:30:37.897Z,13.27
2023-01-25T18:33:08.025Z,12.57
2023-01-25T18:35:37.880Z,13.48
2023-01-25T18:38:06.131Z,13.30
2023-01-25T18:40:36.804Z,12.38
2023-01-25T18:43:05.343Z,13.73
2023-01-25T18:45:36.986Z,14.02
2023-01-25T18:48:06.989Z,13.55
2023-01-25T18:50:36.583Z,13.88
2023-01-25T18:53:05.644Z,14.07
2023-01-25T18:55:35.577Z,13.25
2023-01-25T18:58:05.767Z,14.07
2023-01-25T19:00:36.202Z,17.98
2023-01-25T19:03:05.162Z,13.90
2023-01-25T19:05:33.407Z,16.77
2023-01-25T19:08:23.712Z,14.20
2023-01-25T19:11:00.033Z,13.60
2023-01-25T19:13:32.331Z,13.10
2023-01-25T19:16:03.283Z,13.43
2023-01-25T19:18:35.121Z,14.40
2023-01-25T19:21:08.434Z,17.20
2023-01-25T19:23:40.003Z,11.65
2023-01-25T19:26:16.587Z,10.35
2023-01-25T19:28:47.212Z,10.15
2023-01-25T19:31:20.727Z,10.93
2023-01-25T19:33:50.288Z,11.88
2023-01-25T19:36:19.319Z,11.55
2023-01-25T19:38:49.683Z,10.05
2023-01-25T19:41:22.972Z,9.60
2023-01-25T19:43:54.666Z,12.23
2023-01-25T19:46:25.745Z,11.18
2023-01-25T19:48:55.811Z,10.60
2023-01-25T19:51:27.756Z,10.43
2023-01-25T19:54:00.281Z,10.93
2023-01-25T19:56:32.928Z,13.25
2023-01-25T19:59:03.924Z,14.30
2023-01-25T20:01:32.946Z,16.05
2023-01-25T20:04:06.249Z,13.63
2023-01-25T20:06:35.357Z,11.73
2023-01-25T20:09:28.487Z,13.33
2023-01-25T20:12:00.616Z,13.88
2023-01-25T20:14:29.208Z,14.15
2023-01-25T20:16:57.577Z,13.27
2023-01-25T20:19:25.925Z,12.27
2023-01-25T20:21:54.208Z,12.35
2023-01-25T20:24:22.891Z,11.00
2023-01-25T20:26:52.429Z,11.55
2023-01-25T20:29:23.979Z,11.52
2023-01-25T20:31:53.108Z,11.45
2023-01-25T20:34:24.231Z,12.15
2023-01-25T20:36:52.824Z,11.90
2023-01-25T20:39:23.807Z,10.30
2023-01-25T20:41:53.703Z,11.95
2023-01-25T20:44:23.565Z,12.35
2023-01-25T20:46:54.419Z,11.57
2023-01-25T20:49:23.320Z,12.07
2023-01-25T20:51:51.511Z,10.77
2023-01-25T20:54:21.641Z,13.57
2023-01-25T20:56:50.437Z,20.55
2023-01-25T20:59:19.408Z,14.85
2023-01-25T21:01:50.322Z,19.67
2023-01-25T21:04:18.714Z,17.85
2023-01-25T21:06:47.072Z,15.32
2023-01-25T21:09:16.255Z,17.63
2023-01-25T21:11:44.559Z,11.30
2023-01-25T21:14:13.094Z,10.85
2023-01-25T21:16:41.482Z,11.25
2023-01-25T21:19:12.201Z,11.38
2023-01-25T21:21:41.219Z,12.63
2023-01-25T21:24:11.962Z,13.02
2023-01-25T21:26:40.662Z,12.25
2023-01-25T21:29:09.152Z,11.70
2023-01-25T21:31:42.423Z,11.20
2023-01-25T21:34:12.590Z,10.63
2023-01-25T21:36:41.427Z,10.57
2023-01-25T21:39:10.833Z,11.32
2023-01-25T21:41:39.478Z,15.98
2023-01-25T21:44:26.091Z,11.30
2023-01-25T21:47:23.548Z,10.73
2023-01-25T21:50:01.605Z,13.30
2023-01-25T21:52:30.207Z,13.02
2023-01-25T21:54:58.518Z,14.93
2023-01-25T21:57:26.922Z,12.88
2023-01-25T21:59:55.468Z,12.60
2023-01-25T22:02:24.471Z,11.35
2023-01-25T22:04:54.080Z,12.20
2023-01-25T22:07:23.399Z,12.50
2023-01-25T22:09:51.552Z,11.35
2023-01-25T22:12:19.810Z,12.60
2023-01-25T22:14:48.164Z,12.95
2023-01-25T22:17:18.766Z,12.07
2023-01-25T22:19:47.813Z,12.73
2023-01-25T22:22:17.543Z,11.43
2023-01-25T22:24:47.525Z,11.93
2023-01-25T22:27:38.069Z,13.18
2023-01-25T22:30:11.117Z,12.35
2023-01-25T22:32:41.241Z,12.82
2023-01-25T22:35:10.641Z,14.88
2023-01-25T22:37:40.216Z,11.40
2023-01-25T22:40:10.753Z,12.93
2023-01-25T22:42:39.439Z,13.10
2023-01-25T22:45:09.614Z,14.32
2023-01-25T22:47:37.840Z,15.63
2023-01-25T22:50:07.492Z,15.77
2023-01-25T22:52:35.981Z,15.38
2023-01-25T22:55:06.297Z,17.45
2023-01-25T22:57:34.899Z,18.40
2023-01-25T23:00:05.117Z,16.65
2023-01-25T23:02:33.625Z,17.05
2023-01-25T23:05:01.933Z,15.35
2023-01-25T23:07:30.213Z,13.32
2023-01-25T23:09:58.897Z,12.80
2023-01-25T23:12:29.622Z,15.80
2023-01-25T23:15:06.971Z,13.05
2023-01-25T23:17:52.995Z,14.02
2023-01-25T23:20:21.368Z,16.40
2023-01-25T23:22:52.076Z,16.77
2023-01-25T23:25:20.546Z,17.17
2023-01-25T23:27:51.305Z,16.77
2023-01-25T23:30:23.609Z,17.58
2023-01-25T23:32:52.065Z,17.20
2023-01-25T23:35:22.028Z,17.70
2023-01-25T23:37:50.949Z,17.42
2023-01-25T23:40:19.574Z,16.63
2023-01-25T23:42:50.427Z,17.52
2023-01-25T23:45:19.845Z,16.98
2023-01-25T23:47:48.781Z,17.40
2023-01-25T23:50:18.128Z,17.52
2023-01-25T23:52:47.319Z,17.58
2023-01-25T23:55:16.037Z,16.88
2023-01-25T23:57:44.558Z,17.50
